Arivaca, Arizona
Current Conditions -  °F | °C
As of 6:54 AM on Sunday 21 Dec 2014 (Local Time) from KOLS Reporting Station
Clear Clear  
Wind Chill:   Ceiling: Unl
Heat Index:   Visibility: 10mi
Dew Point: -3°   Wind: 0mph
Humidity: 75%   Direction: NA
Pressure: 30.12"   Gusts: NA
Location:  31.57°N, 111.33°W
Report Text: KOLS 211354Z AUTO 00000KT 10SM CLR 01/M03 A3012 RMK AO2 SLP189 T00111028
Loading
Personal Weather Stations






























Interactive Weather Map New forecast layout! Learn more

10-Day Weather Forecast

Advertisements
Track Severe Weather on mobile